createdAt,value
2018-12-12T00:00:01.936Z,2
2018-12-12T00:00:14.338Z,2
2018-12-12T00:00:26.718Z,2
2018-12-12T00:00:39.106Z,2.45
2018-12-12T00:00:51.497Z,2.45
2018-12-12T00:01:03.877Z,2.45
2018-12-12T00:01:16.249Z,2.45
2018-12-12T00:01:28.620Z,2.45
2018-12-12T00:01:40.997Z,2.45
2018-12-12T00:01:53.387Z,2.45
2018-12-12T00:02:05.770Z,2.45
2018-12-12T00:02:18.285Z,2.45
2018-12-12T00:02:30.647Z,2.45
2018-12-12T00:02:43.177Z,2.45
2018-12-12T00:02:55.564Z,2.45
2018-12-12T00:03:07.944Z,2.45
2018-12-12T00:03:20.341Z,2.45
2018-12-12T00:03:32.713Z,2.45
2018-12-12T00:03:45.074Z,2.45
2018-12-12T00:03:57.444Z,2.45
2018-12-12T00:04:09.803Z,2.45
2018-12-12T00:04:22.162Z,2.45
2018-12-12T00:04:34.526Z,2.45
2018-12-12T00:04:47.077Z,2.45
2018-12-12T00:04:59.457Z,2.45
2018-12-12T00:05:11.916Z,2.45
2018-12-12T00:05:24.449Z,2.45
2018-12-12T00:05:36.828Z,2.45
2018-12-12T00:05:49.209Z,2.45
2018-12-12T00:06:02.479Z,2.45
2018-12-12T00:06:14.840Z,2.45
2018-12-12T00:06:27.211Z,2.45
2018-12-12T00:06:39.585Z,2.45
2018-12-12T00:06:51.968Z,2.45
2018-12-12T00:07:04.321Z,2.45
2018-12-12T00:07:16.699Z,2.45
2018-12-12T00:07:29.090Z,2.45
2018-12-12T00:07:41.463Z,2.45
2018-12-12T00:07:53.890Z,2.45
2018-12-12T00:08:06.262Z,2.45
2018-12-12T00:08:18.632Z,2.45
2018-12-12T00:08:31.064Z,2.45
2018-12-12T00:08:43.422Z,2.45
2018-12-12T00:08:55.851Z,2.45
2018-12-12T00:09:08.233Z,2.45
2018-12-12T00:09:20.614Z,2.45
2018-12-12T00:09:33.017Z,2.45
2018-12-12T00:09:45.386Z,2.45
2018-12-12T00:09:58.011Z,2.45
2018-12-12T00:10:10.536Z,2.45
2018-12-12T00:10:22.916Z,2.45
2018-12-12T00:10:35.299Z,2.45
2018-12-12T00:10:47.720Z,1.86
2018-12-12T00:11:00.155Z,1.86
2018-12-12T00:11:12.537Z,1.86
2018-12-12T00:11:24.902Z,1.86
2018-12-12T00:11:37.270Z,1.86
2018-12-12T00:11:49.636Z,1.86
2018-12-12T00:12:02.014Z,1.86
2018-12-12T00:12:14.373Z,1.86
2018-12-12T00:12:26.818Z,1.86
2018-12-12T00:12:39.178Z,1.86
2018-12-12T00:12:51.548Z,1.86
2018-12-12T00:13:03.996Z,1.86
2018-12-12T00:13:16.369Z,1.86
2018-12-12T00:13:28.765Z,1.86
2018-12-12T00:13:41.125Z,1.86
2018-12-12T00:13:53.492Z,1.86
2018-12-12T00:14:05.856Z,1.86
2018-12-12T00:14:18.208Z,1.86
2018-12-12T00:14:30.626Z,1.86
2018-12-12T00:14:42.998Z,1.86
2018-12-12T00:14:55.431Z,1.86
2018-12-12T00:15:07.794Z,1.86
2018-12-12T00:15:20.165Z,1.86
2018-12-12T00:15:32.539Z,1.86
2018-12-12T00:15:46.326Z,1.86
2018-12-12T00:15:58.705Z,1.86
2018-12-12T00:16:11.145Z,1.86
2018-12-12T00:16:23.532Z,1.86
2018-12-12T00:16:35.897Z,1.86
2018-12-12T00:16:48.285Z,1.86
2018-12-12T00:17:00.651Z,1.86
2018-12-12T00:17:13.014Z,1.86
2018-12-12T00:17:25.381Z,1.86
2018-12-12T00:17:37.758Z,1.86
2018-12-12T00:17:50.119Z,1.86
2018-12-12T00:18:02.661Z,1.86
2018-12-12T00:18:15.038Z,1.86
2018-12-12T00:18:27.462Z,1.86
2018-12-12T00:18:39.822Z,1.86
2018-12-12T00:18:52.176Z,1.86
2018-12-12T00:19:04.656Z,1.86
2018-12-12T00:19:17.022Z,1.86
2018-12-12T00:19:29.391Z,1.86
2018-12-12T00:19:41.824Z,1.86
2018-12-12T00:19:54.184Z,1.86
2018-12-12T00:20:06.553Z,1.86
2018-12-12T00:20:18.936Z,1.86
2018-12-12T00:20:31.333Z,1.86
2018-12-12T00:20:43.876Z,2.09
2018-12-12T00:20:56.250Z,2.09
2018-12-12T00:21:08.694Z,2.09
2018-12-12T00:21:21.073Z,2.09
2018-12-12T00:21:33.437Z,2.09
2018-12-12T00:21:45.806Z,2.09
2018-12-12T00:21:58.172Z,2.09
2018-12-12T00:22:10.598Z,2.09
2018-12-12T00:22:23.010Z,2.09
2018-12-12T00:22:35.383Z,2.09
2018-12-12T00:22:48.073Z,2.09
2018-12-12T00:23:00.454Z,2.09
2018-12-12T00:23:12.819Z,2.09
2018-12-12T00:23:25.184Z,2.09
2018-12-12T00:23:37.564Z,2.09
2018-12-12T00:23:49.929Z,2.09
2018-12-12T00:24:02.287Z,2.09
2018-12-12T00:24:14.651Z,2.09
2018-12-12T00:24:27.016Z,2.09
2018-12-12T00:24:39.397Z,2.09
2018-12-12T00:24:51.755Z,2.09
2018-12-12T00:25:04.185Z,2.09
2018-12-12T00:25:16.626Z,2.09
2018-12-12T00:25:29.004Z,2.09
2018-12-12T00:25:41.375Z,2.09
2018-12-12T00:25:53.744Z,2.09
2018-12-12T00:26:06.107Z,2.09
2018-12-12T00:26:18.470Z,2.09
2018-12-12T00:26:30.988Z,2.09
2018-12-12T00:26:43.352Z,2.09
2018-12-12T00:26:55.773Z,2.09
2018-12-12T00:27:08.130Z,2.09
2018-12-12T00:27:20.563Z,2.09
2018-12-12T00:27:32.974Z,2.09
2018-12-12T00:27:45.341Z,2.09
2018-12-12T00:27:57.722Z,2.09
2018-12-12T00:28:10.121Z,2.09
2018-12-12T00:28:22.511Z,2.09
2018-12-12T00:28:34.872Z,2.09
2018-12-12T00:28:47.228Z,2.09
2018-12-12T00:28:59.653Z,2.09
2018-12-12T00:29:12.090Z,2.09
2018-12-12T00:29:24.445Z,2.09
2018-12-12T00:29:36.816Z,2.09
2018-12-12T00:29:49.327Z,2.09
2018-12-12T00:30:01.700Z,2.09
2018-12-12T00:30:14.068Z,2.09
2018-12-12T00:30:26.457Z,2.09
2018-12-12T00:30:39.131Z,1.63
2018-12-12T00:30:51.499Z,1.63
2018-12-12T00:31:03.882Z,1.63
2018-12-12T00:31:16.257Z,1.63
2018-12-12T00:31:28.648Z,1.63
2018-12-12T00:31:41.032Z,1.63
2018-12-12T00:31:53.398Z,1.63
2018-12-12T00:32:05.778Z,1.63
2018-12-12T00:32:18.148Z,1.63
2018-12-12T00:32:30.516Z,1.63
2018-12-12T00:32:42.855Z,1.63
2018-12-12T00:32:55.223Z,1.63
2018-12-12T00:33:07.592Z,1.63
2018-12-12T00:33:19.991Z,1.63
2018-12-12T00:33:32.390Z,1.63
2018-12-12T00:33:44.833Z,1.63
2018-12-12T00:33:57.191Z,1.63
2018-12-12T00:34:09.552Z,1.63
2018-12-12T00:34:21.914Z,1.63
2018-12-12T00:34:34.292Z,1.63
2018-12-12T00:34:46.741Z,1.63
2018-12-12T00:34:59.127Z,1.63
2018-12-12T00:35:11.521Z,1.63
2018-12-12T00:35:23.903Z,1.63
2018-12-12T00:35:36.270Z,1.63
2018-12-12T00:35:50.129Z,1.63
2018-12-12T00:36:02.524Z,1.63
2018-12-12T00:36:14.929Z,1.63
2018-12-12T00:36:27.296Z,1.63
2018-12-12T00:36:39.672Z,1.63
2018-12-12T00:36:52.048Z,1.63
2018-12-12T00:37:04.431Z,1.63
2018-12-12T00:37:16.959Z,1.63
2018-12-12T00:37:29.333Z,1.63
2018-12-12T00:37:41.713Z,1.63
2018-12-12T00:37:54.087Z,1.63
2018-12-12T00:38:06.457Z,1.63
2018-12-12T00:38:18.821Z,1.63
2018-12-12T00:38:31.166Z,1.63
2018-12-12T00:38:43.544Z,1.63
2018-12-12T00:38:55.903Z,1.63
2018-12-12T00:39:08.271Z,1.63
2018-12-12T00:39:20.662Z,1.63
2018-12-12T00:39:33.055Z,1.63
2018-12-12T00:39:45.581Z,1.63
2018-12-12T00:39:58.003Z,1.63
2018-12-12T00:40:10.374Z,1.63
2018-12-12T00:40:22.731Z,1.63
2018-12-12T00:40:35.084Z,1.63
2018-12-12T00:40:47.460Z,2.23
2018-12-12T00:40:59.953Z,2.23
2018-12-12T00:41:12.404Z,2.23
2018-12-12T00:41:24.767Z,2.23
2018-12-12T00:41:37.123Z,2.23
2018-12-12T00:41:49.480Z,2.23
2018-12-12T00:42:01.868Z,2.23
2018-12-12T00:42:14.680Z,2.23
2018-12-12T00:42:28.033Z,2.23
2018-12-12T00:42:40.385Z,2.23
2018-12-12T00:42:52.751Z,2.23
2018-12-12T00:43:05.114Z,2.23
2018-12-12T00:43:17.538Z,2.23
2018-12-12T00:43:29.922Z,2.23
2018-12-12T00:43:42.356Z,2.23
2018-12-12T00:43:54.720Z,2.23
2018-12-12T00:44:07.176Z,2.23
2018-12-12T00:44:19.558Z,2.23
2018-12-12T00:44:32.166Z,2.23
2018-12-12T00:44:44.528Z,2.23
2018-12-12T00:44:56.898Z,2.23
2018-12-12T00:45:09.257Z,2.23
2018-12-12T00:45:21.633Z,2.23
2018-12-12T00:45:33.998Z,2.23
2018-12-12T00:45:46.357Z,2.23
2018-12-12T00:45:58.728Z,2.23
2018-12-12T00:46:11.087Z,2.23
2018-12-12T00:46:23.454Z,2.23
2018-12-12T00:46:35.868Z,2.23
2018-12-12T00:46:48.229Z,2.23
2018-12-12T00:47:00.600Z,2.23
2018-12-12T00:47:13.047Z,2.23
2018-12-12T00:47:25.419Z,2.23
2018-12-12T00:47:37.822Z,2.23
2018-12-12T00:47:50.184Z,2.23
2018-12-12T00:48:02.550Z,2.23
2018-12-12T00:48:14.919Z,2.23
2018-12-12T00:48:27.291Z,2.23
2018-12-12T00:48:39.669Z,2.23
2018-12-12T00:48:52.041Z,2.23
2018-12-12T00:49:04.412Z,2.23
2018-12-12T00:49:16.765Z,2.23
2018-12-12T00:49:29.211Z,2.23
2018-12-12T00:49:41.573Z,2.23
2018-12-12T00:49:53.940Z,2.23
2018-12-12T00:50:06.440Z,2.23
2018-12-12T00:50:18.795Z,2.23
2018-12-12T00:50:31.225Z,2.23
2018-12-12T00:50:43.665Z,3.1
2018-12-12T00:50:56.041Z,3.1
2018-12-12T00:51:08.420Z,3.1
2018-12-12T00:51:20.797Z,3.1
2018-12-12T00:51:33.170Z,3.1
2018-12-12T00:51:45.535Z,3.1
2018-12-12T00:51:57.903Z,3.1
2018-12-12T00:52:10.451Z,3.1
2018-12-12T00:52:22.805Z,3.1
2018-12-12T00:52:35.182Z,3.1
2018-12-12T00:52:47.551Z,3.1
2018-12-12T00:52:59.973Z,3.1
2018-12-12T00:53:12.342Z,3.1
2018-12-12T00:53:24.736Z,3.1
2018-12-12T00:53:37.104Z,3.1
2018-12-12T00:53:49.474Z,3.1
2018-12-12T00:54:01.826Z,3.1
2018-12-12T00:54:14.430Z,3.1
2018-12-12T00:54:26.781Z,3.1
2018-12-12T00:54:39.143Z,3.1
2018-12-12T00:54:51.697Z,3.1
2018-12-12T00:55:04.054Z,3.1
2018-12-12T00:55:16.408Z,3.1
2018-12-12T00:55:28.767Z,3.1
2018-12-12T00:55:41.125Z,3.1
2018-12-12T00:55:54.407Z,3.1
2018-12-12T00:56:06.788Z,3.1
2018-12-12T00:56:19.174Z,3.1
2018-12-12T00:56:31.548Z,3.1
2018-12-12T00:56:44.073Z,3.1
2018-12-12T00:56:56.426Z,3.1
2018-12-12T00:57:08.779Z,3.1
2018-12-12T00:57:21.168Z,3.1
2018-12-12T00:57:33.539Z,3.1
2018-12-12T00:57:45.896Z,3.1
2018-12-12T00:57:58.254Z,3.1
2018-12-12T00:58:10.629Z,3.1
2018-12-12T00:58:23.086Z,3.1
2018-12-12T00:58:35.520Z,3.1
2018-12-12T00:58:47.919Z,3.1
2018-12-12T00:59:00.293Z,3.1
2018-12-12T00:59:12.666Z,3.1
2018-12-12T00:59:25.038Z,3.1
2018-12-12T00:59:37.413Z,3.1
2018-12-12T00:59:49.765Z,3.1
2018-12-12T01:00:02.178Z,3.1
2018-12-12T01:00:14.581Z,3.1
2018-12-12T01:00:26.967Z,3.1
2018-12-12T01:00:39.345Z,2.95
2018-12-12T01:00:51.698Z,2.95
2018-12-12T01:01:04.090Z,2.95
2018-12-12T01:01:16.450Z,2.95
2018-12-12T01:01:28.827Z,2.95
2018-12-12T01:01:41.207Z,2.95
2018-12-12T01:01:53.584Z,2.95
2018-12-12T01:02:06.044Z,2.95
2018-12-12T01:02:18.409Z,2.95
2018-12-12T01:02:30.772Z,2.95
2018-12-12T01:02:43.288Z,2.95
2018-12-12T01:02:55.674Z,2.95
2018-12-12T01:03:08.047Z,2.95
2018-12-12T01:03:20.401Z,2.95
2018-12-12T01:03:32.787Z,2.95
2018-12-12T01:03:45.146Z,2.95
2018-12-12T01:03:57.524Z,2.95
2018-12-12T01:04:09.975Z,2.95
2018-12-12T01:04:22.336Z,2.95
2018-12-12T01:04:34.713Z,2.95
2018-12-12T01:04:47.098Z,2.95
2018-12-12T01:04:59.467Z,2.95
2018-12-12T01:05:11.863Z,2.95
2018-12-12T01:05:24.546Z,2.95
2018-12-12T01:05:36.904Z,2.95
2018-12-12T01:05:49.291Z,2.95
2018-12-12T01:06:01.651Z,2.95
2018-12-12T01:06:14.038Z,2.95
2018-12-12T01:06:26.402Z,2.95
2018-12-12T01:06:38.826Z,2.95
2018-12-12T01:06:51.195Z,2.95
2018-12-12T01:07:03.549Z,2.95
2018-12-12T01:07:15.903Z,2.95
2018-12-12T01:07:28.552Z,2.95
2018-12-12T01:07:40.946Z,2.95
2018-12-12T01:07:53.301Z,2.95
2018-12-12T01:08:05.670Z,2.95
2018-12-12T01:08:18.020Z,2.95
2018-12-12T01:08:30.404Z,2.95
2018-12-12T01:08:42.776Z,2.95
2018-12-12T01:08:55.151Z,2.95
2018-12-12T01:09:07.584Z,2.95
2018-12-12T01:09:19.949Z,2.95
2018-12-12T01:09:32.320Z,2.95
2018-12-12T01:09:44.696Z,2.95
2018-12-12T01:09:57.244Z,2.95
2018-12-12T01:10:09.638Z,2.95
2018-12-12T01:10:22.024Z,2.95
2018-12-12T01:10:34.388Z,2.95
2018-12-12T01:10:46.750Z,1.79
2018-12-12T01:10:59.141Z,1.79
2018-12-12T01:11:11.515Z,1.79
2018-12-12T01:11:23.887Z,1.79
2018-12-12T01:11:36.253Z,1.79
2018-12-12T01:11:48.662Z,1.79
2018-12-12T01:12:01.097Z,1.79
2018-12-12T01:12:13.476Z,1.79
2018-12-12T01:12:25.867Z,1.79
2018-12-12T01:12:38.231Z,1.79
2018-12-12T01:12:50.596Z,1.79
2018-12-12T01:13:03.115Z,1.79
2018-12-12T01:13:15.505Z,1.79
2018-12-12T01:13:27.868Z,1.79
2018-12-12T01:13:40.263Z,1.79
2018-12-12T01:13:52.620Z,1.79
2018-12-12T01:14:05.019Z,1.79
2018-12-12T01:14:17.392Z,1.79
2018-12-12T01:14:29.780Z,1.79
2018-12-12T01:14:42.148Z,1.79
2018-12-12T01:14:54.505Z,1.79
2018-12-12T01:15:07.116Z,1.79
2018-12-12T01:15:19.471Z,1.79
2018-12-12T01:15:31.838Z,1.79
2018-12-12T01:15:44.209Z,1.79
2018-12-12T01:15:56.586Z,1.79
2018-12-12T01:16:08.936Z,1.79
2018-12-12T01:16:21.336Z,1.79
2018-12-12T01:16:33.691Z,1.79
2018-12-12T01:16:46.057Z,1.79
2018-12-12T01:16:58.419Z,1.79
2018-12-12T01:17:10.792Z,1.79
2018-12-12T01:17:23.158Z,1.79
2018-12-12T01:17:35.526Z,1.79
2018-12-12T01:17:47.906Z,1.79
2018-12-12T01:18:00.557Z,1.79
2018-12-12T01:18:12.958Z,1.79
2018-12-12T01:18:25.335Z,1.79
2018-12-12T01:18:37.685Z,1.79
2018-12-12T01:18:50.103Z,1.79
2018-12-12T01:19:02.619Z,1.79
2018-12-12T01:19:14.976Z,1.79
2018-12-12T01:19:27.335Z,1.79
2018-12-12T01:19:39.705Z,1.79
2018-12-12T01:19:52.085Z,1.79
2018-12-12T01:20:04.466Z,1.79
2018-12-12T01:20:16.826Z,1.79
2018-12-12T01:20:29.190Z,1.79
2018-12-12T01:20:41.580Z,2.4
2018-12-12T01:20:53.933Z,2.4
2018-12-12T01:21:06.293Z,2.4
2018-12-12T01:21:18.650Z,2.4
2018-12-12T01:21:31.107Z,2.4
2018-12-12T01:21:43.457Z,2.4
2018-12-12T01:21:55.979Z,2.4
2018-12-12T01:22:08.364Z,2.4
2018-12-12T01:22:20.724Z,2.4
2018-12-12T01:22:33.374Z,2.4
2018-12-12T01:22:45.744Z,2.4
2018-12-12T01:22:58.105Z,2.4
2018-12-12T01:23:10.506Z,2.4
2018-12-12T01:23:22.882Z,2.4
2018-12-12T01:23:35.251Z,2.4
2018-12-12T01:23:47.623Z,2.4
2018-12-12T01:23:59.987Z,2.4
2018-12-12T01:24:12.455Z,2.4
2018-12-12T01:24:24.936Z,2.4
2018-12-12T01:24:37.433Z,2.4
2018-12-12T01:24:49.790Z,2.4
2018-12-12T01:25:02.157Z,2.4
2018-12-12T01:25:14.582Z,2.4
2018-12-12T01:25:26.937Z,2.4
2018-12-12T01:25:39.292Z,2.4
2018-12-12T01:25:51.646Z,2.4
2018-12-12T01:26:03.998Z,2.4
2018-12-12T01:26:16.385Z,2.4
2018-12-12T01:26:28.895Z,2.4
2018-12-12T01:26:41.253Z,2.4
2018-12-12T01:26:53.616Z,2.4
2018-12-12T01:27:05.988Z,2.4
2018-12-12T01:27:18.421Z,2.4
2018-12-12T01:27:30.765Z,2.4
2018-12-12T01:27:43.127Z,2.4
2018-12-12T01:27:55.484Z,2.4
2018-12-12T01:28:07.843Z,2.4
2018-12-12T01:28:20.211Z,2.4
2018-12-12T01:28:32.572Z,2.4
2018-12-12T01:28:44.944Z,2.4
2018-12-12T01:28:57.315Z,2.4
2018-12-12T01:29:09.679Z,2.4
2018-12-12T01:29:22.052Z,2.4
2018-12-12T01:29:34.408Z,2.4
2018-12-12T01:29:46.778Z,2.4
2018-12-12T01:29:59.323Z,2.4
2018-12-12T01:30:11.690Z,2.4
2018-12-12T01:30:24.170Z,2.4
2018-12-12T01:30:36.898Z,2.4
2018-12-12T01:30:49.262Z,3.15
2018-12-12T01:31:01.638Z,3.15
2018-12-12T01:31:13.987Z,3.15
2018-12-12T01:31:26.355Z,3.15
2018-12-12T01:31:38.722Z,3.15
2018-12-12T01:31:51.093Z,3.15
2018-12-12T01:32:03.454Z,3.15
2018-12-12T01:32:15.973Z,3.15
2018-12-12T01:32:28.348Z,3.15
2018-12-12T01:32:40.726Z,3.15
2018-12-12T01:32:53.149Z,3.15
2018-12-12T01:33:05.569Z,3.15
2018-12-12T01:33:17.943Z,3.15
2018-12-12T01:33:30.318Z,3.15
2018-12-12T01:33:42.689Z,3.15
2018-12-12T01:33:55.081Z,3.15
2018-12-12T01:34:07.440Z,3.15
2018-12-12T01:34:19.816Z,3.15
2018-12-12T01:34:32.192Z,3.15
2018-12-12T01:34:44.554Z,3.15
2018-12-12T01:34:56.954Z,3.15
2018-12-12T01:35:09.341Z,3.15
2018-12-12T01:35:21.734Z,3.15
2018-12-12T01:35:34.090Z,3.15
2018-12-12T01:35:46.528Z,3.15
2018-12-12T01:35:58.906Z,3.15
2018-12-12T01:36:11.266Z,3.15
2018-12-12T01:36:23.642Z,3.15
2018-12-12T01:36:36.049Z,3.15
2018-12-12T01:36:48.426Z,3.15
2018-12-12T01:37:00.786Z,3.15
2018-12-12T01:37:13.307Z,3.15
2018-12-12T01:37:25.652Z,3.15
2018-12-12T01:37:38.004Z,3.15
2018-12-12T01:37:50.366Z,3.15
2018-12-12T01:38:02.742Z,3.15
2018-12-12T01:38:15.121Z,3.15
2018-12-12T01:38:27.488Z,3.15
2018-12-12T01:38:39.863Z,3.15
2018-12-12T01:38:52.231Z,3.15
2018-12-12T01:39:04.597Z,3.15
2018-12-12T01:39:16.957Z,3.15
2018-12-12T01:39:29.315Z,3.15
2018-12-12T01:39:41.733Z,3.15
2018-12-12T01:39:54.244Z,3.15
2018-12-12T01:40:06.604Z,3.15
2018-12-12T01:40:18.971Z,3.15
2018-12-12T01:40:31.400Z,3.15
2018-12-12T01:40:43.770Z,4.6
2018-12-12T01:40:56.219Z,4.6
2018-12-12T01:41:09.075Z,4.6
2018-12-12T01:41:21.421Z,4.6
2018-12-12T01:41:33.802Z,4.6
2018-12-12T01:41:46.163Z,4.6
2018-12-12T01:41:58.588Z,4.6
2018-12-12T01:42:11.089Z,4.6
2018-12-12T01:42:23.440Z,4.6
2018-12-12T01:42:35.789Z,4.6
2018-12-12T01:42:48.155Z,4.6
2018-12-12T01:43:00.522Z,4.6
2018-12-12T01:43:12.897Z,4.6
2018-12-12T01:43:25.280Z,4.6
2018-12-12T01:43:37.716Z,4.6
2018-12-12T01:43:50.187Z,4.6
2018-12-12T01:44:02.679Z,4.6
2018-12-12T01:44:15.037Z,4.6
2018-12-12T01:44:27.532Z,4.6
2018-12-12T01:44:39.903Z,4.6
2018-12-12T01:44:52.335Z,4.6
2018-12-12T01:45:04.714Z,4.6
2018-12-12T01:45:17.133Z,4.6
2018-12-12T01:45:29.499Z,4.6
2018-12-12T01:45:41.884Z,4.6
2018-12-12T01:45:54.321Z,4.6
2018-12-12T01:46:06.768Z,4.6
2018-12-12T01:46:19.134Z,4.6
2018-12-12T01:46:31.513Z,4.6
2018-12-12T01:46:43.882Z,4.6
2018-12-12T01:46:56.251Z,4.6
2018-12-12T01:47:08.602Z,4.6
2018-12-12T01:47:20.971Z,4.6
2018-12-12T01:47:33.348Z,4.6
2018-12-12T01:47:45.714Z,4.6
2018-12-12T01:47:58.105Z,4.6
2018-12-12T01:48:10.461Z,4.6
2018-12-12T01:48:22.845Z,4.6
2018-12-12T01:48:35.274Z,4.6
2018-12-12T01:48:47.626Z,4.6
2018-12-12T01:48:59.992Z,4.6
2018-12-12T01:49:12.419Z,4.6
2018-12-12T01:49:24.786Z,4.6
2018-12-12T01:49:37.156Z,4.6
2018-12-12T01:49:49.523Z,4.6
2018-12-12T01:50:02.005Z,4.6
2018-12-12T01:50:14.512Z,4.6
2018-12-12T01:50:26.919Z,4.6
2018-12-12T01:50:39.295Z,4.6
2018-12-12T01:50:51.855Z,2.46
2018-12-12T01:51:04.238Z,2.46
2018-12-12T01:51:16.608Z,2.46
2018-12-12T01:51:28.970Z,2.46
2018-12-12T01:51:41.340Z,2.46
2018-12-12T01:51:53.705Z,2.46
2018-12-12T01:52:06.154Z,2.46
2018-12-12T01:52:18.514Z,2.46
2018-12-12T01:52:31.003Z,2.46
2018-12-12T01:52:43.362Z,2.46
2018-12-12T01:52:55.729Z,2.46
2018-12-12T01:53:08.080Z,2.46
2018-12-12T01:53:20.439Z,2.46
2018-12-12T01:53:34.236Z,2.46
2018-12-12T01:53:46.677Z,2.46
2018-12-12T01:53:59.039Z,2.46
2018-12-12T01:54:11.619Z,2.46
2018-12-12T01:54:24.003Z,2.46
2018-12-12T01:54:36.398Z,2.46
2018-12-12T01:54:48.780Z,2.46
2018-12-12T01:55:01.309Z,2.46
2018-12-12T01:55:13.659Z,2.46
2018-12-12T01:55:26.015Z,2.46
2018-12-12T01:55:38.382Z,2.46
2018-12-12T01:55:50.867Z,2.46
2018-12-12T01:56:03.229Z,2.46
2018-12-12T01:56:15.583Z,2.46
2018-12-12T01:56:27.942Z,2.46
2018-12-12T01:56:40.408Z,2.46
2018-12-12T01:56:52.776Z,2.46
2018-12-12T01:57:05.169Z,2.46
2018-12-12T01:57:17.553Z,2.46
2018-12-12T01:57:29.984Z,2.46
2018-12-12T01:57:42.356Z,2.46
2018-12-12T01:57:54.741Z,2.46
2018-12-12T01:58:07.120Z,2.46
2018-12-12T01:58:19.924Z,2.46
2018-12-12T01:58:32.312Z,2.46
2018-12-12T01:58:44.677Z,2.46
2018-12-12T01:58:57.053Z,2.46
2018-12-12T01:59:09.445Z,2.46
2018-12-12T01:59:21.805Z,2.46
2018-12-12T01:59:34.231Z,2.46
2018-12-12T01:59:46.609Z,2.46
2018-12-12T01:59:59.025Z,2.46
2018-12-12T02:00:11.398Z,2.46
2018-12-12T02:00:23.794Z,2.46
2018-12-12T02:00:36.185Z,2.46
2018-12-12T02:00:48.549Z,4.08
2018-12-12T02:01:00.937Z,4.08
2018-12-12T02:01:13.303Z,4.08
2018-12-12T02:01:25.681Z,4.08
2018-12-12T02:01:38.048Z,4.08
2018-12-12T02:01:50.507Z,4.08
2018-12-12T02:02:02.889Z,4.08
2018-12-12T02:02:15.264Z,4.08
2018-12-12T02:02:27.653Z,4.08
2018-12-12T02:02:40.090Z,4.08
2018-12-12T02:02:52.475Z,4.08
2018-12-12T02:03:04.855Z,4.08
2018-12-12T02:03:17.221Z,4.08
2018-12-12T02:03:29.625Z,4.08
2018-12-12T02:03:41.992Z,4.08
2018-12-12T02:03:54.362Z,4.08
2018-12-12T02:04:06.731Z,4.08
2018-12-12T02:04:19.111Z,4.08
2018-12-12T02:04:31.469Z,4.08
2018-12-12T02:04:43.853Z,4.08
2018-12-12T02:04:56.230Z,4.08
2018-12-12T02:05:08.616Z,4.08
2018-12-12T02:05:22.147Z,4.08
2018-12-12T02:05:34.574Z,4.08
2018-12-12T02:05:46.957Z,4.08
2018-12-12T02:05:59.317Z,4.08
2018-12-12T02:06:11.697Z,4.08
2018-12-12T02:06:24.068Z,4.08
2018-12-12T02:06:36.432Z,4.08
2018-12-12T02:06:48.920Z,4.08
2018-12-12T02:07:01.277Z,4.08
2018-12-12T02:07:13.643Z,4.08
2018-12-12T02:07:26.019Z,4.08
2018-12-12T02:07:38.374Z,4.08
2018-12-12T02:07:50.741Z,4.08
2018-12-12T02:08:03.185Z,4.08
2018-12-12T02:08:15.583Z,4.08
2018-12-12T02:08:27.969Z,4.08
2018-12-12T02:08:40.322Z,4.08
2018-12-12T02:08:54.107Z,4.08
2018-12-12T02:09:06.493Z,4.08
2018-12-12T02:09:18.878Z,4.08
2018-12-12T02:09:31.257Z,4.08
2018-12-12T02:09:43.628Z,4.08
2018-12-12T02:09:56.075Z,4.08
2018-12-12T02:10:08.475Z,4.08
2018-12-12T02:10:20.858Z,4.08
2018-12-12T02:10:33.223Z,4.08
2018-12-12T02:10:45.653Z,1.92
2018-12-12T02:10:58.021Z,1.92
2018-12-12T02:11:10.395Z,1.92
2018-12-12T02:11:22.744Z,1.92
2018-12-12T02:11:35.133Z,1.92
2018-12-12T02:11:47.523Z,1.92
2018-12-12T02:11:59.900Z,1.92
2018-12-12T02:12:12.286Z,1.92
2018-12-12T02:12:24.820Z,1.92
2018-12-12T02:12:37.202Z,1.92
2018-12-12T02:12:49.552Z,1.92
2018-12-12T02:13:02.087Z,1.92
2018-12-12T02:13:14.466Z,1.92
2018-12-12T02:13:26.871Z,1.92
2018-12-12T02:13:39.215Z,1.92
2018-12-12T02:13:51.578Z,1.92
2018-12-12T02:14:03.978Z,1.92
2018-12-12T02:14:16.347Z,1.92
2018-12-12T02:14:28.713Z,1.92
2018-12-12T02:14:41.099Z,1.92
2018-12-12T02:14:53.458Z,1.92
2018-12-12T02:15:05.989Z,1.92
2018-12-12T02:15:18.362Z,1.92
2018-12-12T02:15:30.715Z,1.92
2018-12-12T02:15:43.081Z,1.92
2018-12-12T02:15:55.451Z,1.92
2018-12-12T02:16:07.789Z,1.92
2018-12-12T02:16:20.153Z,1.92
2018-12-12T02:16:32.501Z,1.92
2018-12-12T02:16:44.865Z,1.92
2018-12-12T02:16:57.234Z,1.92
2018-12-12T02:17:09.671Z,1.92
2018-12-12T02:17:22.040Z,1.92
2018-12-12T02:17:34.444Z,1.92
2018-12-12T02:17:46.818Z,1.92
2018-12-12T02:17:59.219Z,1.92
2018-12-12T02:18:11.581Z,1.92
2018-12-12T02:18:23.950Z,1.92
2018-12-12T02:18:36.309Z,1.92
2018-12-12T02:18:48.697Z,1.92
2018-12-12T02:19:01.232Z,1.92
2018-12-12T02:19:13.603Z,1.92
2018-12-12T02:19:25.969Z,1.92
2018-12-12T02:19:38.349Z,1.92
2018-12-12T02:19:50.717Z,1.92
2018-12-12T02:20:03.096Z,1.92
2018-12-12T02:20:15.457Z,1.92
2018-12-12T02:20:27.824Z,1.92
2018-12-12T02:20:40.216Z,1.92
2018-12-12T02:20:52.581Z,2.9
2018-12-12T02:21:04.967Z,2.9
2018-12-12T02:21:17.341Z,2.9
2018-12-12T02:21:29.724Z,2.9
2018-12-12T02:21:42.098Z,2.9
2018-12-12T02:21:54.495Z,2.9
2018-12-12T02:22:06.859Z,2.9
2018-12-12T02:22:19.231Z,2.9
2018-12-12T02:22:31.588Z,2.9
2018-12-12T02:22:43.973Z,2.9
2018-12-12T02:22:56.347Z,2.9
2018-12-12T02:23:08.709Z,2.9
2018-12-12T02:23:21.061Z,2.9
2018-12-12T02:23:33.436Z,2.9
2018-12-12T02:23:45.809Z,2.9
2018-12-12T02:23:58.202Z,2.9
2018-12-12T02:24:10.580Z,2.9
2018-12-12T02:24:22.958Z,2.9
2018-12-12T02:24:35.325Z,2.9
2018-12-12T02:24:47.747Z,2.9
2018-12-12T02:25:00.201Z,2.9
2018-12-12T02:25:12.566Z,2.9
2018-12-12T02:25:25.250Z,2.9
2018-12-12T02:25:37.778Z,2.9
2018-12-12T02:25:50.153Z,2.9
2018-12-12T02:26:02.530Z,2.9
2018-12-12T02:26:14.968Z,2.9
2018-12-12T02:26:27.440Z,2.9
2018-12-12T02:26:39.798Z,2.9
2018-12-12T02:26:52.155Z,2.9
2018-12-12T02:27:04.519Z,2.9
2018-12-12T02:27:16.901Z,2.9
2018-12-12T02:27:29.264Z,2.9
2018-12-12T02:27:41.638Z,2.9
2018-12-12T02:27:54.019Z,2.9
2018-12-12T02:28:06.377Z,2.9
2018-12-12T02:28:18.742Z,2.9
2018-12-12T02:28:31.117Z,2.9
2018-12-12T02:28:43.484Z,2.9
2018-12-12T02:28:55.846Z,2.9
2018-12-12T02:29:08.213Z,2.9
2018-12-12T02:29:20.589Z,2.9
2018-12-12T02:29:32.939Z,2.9
2018-12-12T02:29:45.302Z,2.9
2018-12-12T02:29:57.865Z,2.9
2018-12-12T02:30:10.331Z,2.9
2018-12-12T02:30:22.751Z,2.9
2018-12-12T02:30:35.488Z,2.9
2018-12-12T02:30:48.089Z,2.43
2018-12-12T02:31:00.469Z,2.43
2018-12-12T02:31:12.860Z,2.43
2018-12-12T02:31:25.271Z,2.43
2018-12-12T02:31:37.652Z,2.43
2018-12-12T02:31:50.025Z,2.43
2018-12-12T02:32:02.407Z,2.43
2018-12-12T02:32:14.811Z,2.43
2018-12-12T02:32:27.207Z,2.43
2018-12-12T02:32:39.585Z,2.43
2018-12-12T02:32:51.972Z,2.43
2018-12-12T02:33:04.454Z,2.43
2018-12-12T02:33:16.846Z,2.43
2018-12-12T02:33:29.259Z,2.43
2018-12-12T02:33:41.633Z,2.43
2018-12-12T02:33:54.033Z,2.43
2018-12-12T02:34:06.511Z,2.43
2018-12-12T02:34:18.907Z,2.43
2018-12-12T02:34:31.351Z,2.43
2018-12-12T02:34:43.780Z,2.43
2018-12-12T02:34:56.140Z,2.43
2018-12-12T02:35:08.511Z,2.43
2018-12-12T02:35:20.903Z,2.43
2018-12-12T02:35:33.486Z,2.43
2018-12-12T02:35:45.902Z,2.43
2018-12-12T02:35:58.342Z,2.43
2018-12-12T02:36:10.735Z,2.43
2018-12-12T02:36:23.169Z,2.43
2018-12-12T02:36:35.585Z,2.43
2018-12-12T02:36:48.015Z,2.43
2018-12-12T02:37:00.409Z,2.43
2018-12-12T02:37:12.945Z,2.43
2018-12-12T02:37:25.337Z,2.43
2018-12-12T02:37:37.734Z,2.43
2018-12-12T02:37:50.110Z,2.43
2018-12-12T02:38:02.468Z,2.43
2018-12-12T02:38:14.851Z,2.43
2018-12-12T02:38:27.301Z,2.43
2018-12-12T02:38:39.702Z,2.43
2018-12-12T02:38:52.081Z,2.43
2018-12-12T02:39:04.459Z,2.43
2018-12-12T02:39:16.869Z,2.43
2018-12-12T02:39:29.246Z,2.43
2018-12-12T02:39:41.631Z,2.43
2018-12-12T02:39:54.134Z,2.43
2018-12-12T02:40:06.548Z,2.43
2018-12-12T02:40:18.966Z,2.43
2018-12-12T02:40:31.365Z,2.43
2018-12-12T02:40:43.759Z,2.43
2018-12-12T02:40:56.141Z,2.05
2018-12-12T02:41:09.112Z,2.05
2018-12-12T02:41:21.490Z,2.05
2018-12-12T02:41:33.892Z,2.05
2018-12-12T02:41:46.297Z,2.05
2018-12-12T02:41:58.689Z,2.05
2018-12-12T02:42:11.322Z,2.05
2018-12-12T02:42:23.707Z,2.05
2018-12-12T02:42:36.085Z,2.05
2018-12-12T02:42:48.510Z,2.05
2018-12-12T02:43:00.898Z,2.05
2018-12-12T02:43:13.272Z,2.05
2018-12-12T02:43:25.636Z,2.05
2018-12-12T02:43:38.023Z,2.05
2018-12-12T02:43:51.760Z,2.05
2018-12-12T02:44:04.472Z,2.05
2018-12-12T02:44:16.852Z,2.05
2018-12-12T02:44:29.417Z,2.05
2018-12-12T02:44:41.814Z,2.05
2018-12-12T02:44:54.299Z,2.05
2018-12-12T02:45:06.713Z,2.05
2018-12-12T02:45:19.125Z,2.05
2018-12-12T02:45:31.523Z,2.05
2018-12-12T02:45:43.907Z,2.05
2018-12-12T02:45:56.282Z,2.05
2018-12-12T02:46:08.665Z,2.05
2018-12-12T02:46:21.064Z,2.05
2018-12-12T02:46:33.494Z,2.05